createdAt,value
2022-11-20T00:01:25.850Z,100939.31
2022-11-20T00:03:55.093Z,100940.41
2022-11-20T00:06:24.394Z,100934.34
2022-11-20T00:08:52.809Z,100942.06
2022-11-20T00:11:22.971Z,100925.50
2022-11-20T00:13:53.123Z,100923.25
2022-11-20T00:16:24.510Z,100935.03
2022-11-20T00:18:52.848Z,100921.53
2022-11-20T00:21:23.512Z,100906.06
2022-11-20T00:23:54.957Z,100910.63
2022-11-20T00:26:24.329Z,100912.59
2022-11-20T00:28:53.793Z,100912.59
2022-11-20T00:31:23.550Z,100906.19
2022-11-20T00:33:51.929Z,100909.38
2022-11-20T00:36:21.285Z,100912.88
2022-11-20T00:38:53.316Z,100912.59
2022-11-20T00:41:21.976Z,100895.22
2022-11-20T00:43:50.041Z,100910.03
2022-11-20T00:46:20.137Z,100905.38
2022-11-20T00:48:50.301Z,100909.88
2022-11-20T00:51:21.562Z,100896.41
2022-11-20T00:53:50.398Z,100905.72
2022-11-20T00:56:21.225Z,100906.06
2022-11-20T00:58:50.593Z,100901.09
2022-11-20T01:01:20.777Z,100899.38
2022-11-20T01:03:51.586Z,100907.63
2022-11-20T01:06:21.938Z,100902.97
2022-11-20T01:08:51.212Z,100897.66
2022-11-20T01:11:21.549Z,100885.59
2022-11-20T01:13:51.220Z,100887.75
2022-11-20T01:16:21.688Z,100903.44
2022-11-20T01:18:53.979Z,100904.09
2022-11-20T01:21:23.760Z,100906.66
2022-11-20T01:23:52.889Z,100896.66
2022-11-20T01:26:22.653Z,100904.78
2022-11-20T01:28:51.079Z,100900.56
2022-11-20T01:31:21.651Z,100908.06
2022-11-20T01:33:52.383Z,100905.31
2022-11-20T01:36:22.348Z,100899.34
2022-11-20T01:38:52.890Z,100880.66
2022-11-20T01:41:35.098Z,100891.75
2022-11-20T01:44:04.580Z,100886.75
2022-11-20T01:46:33.397Z,100879.91
2022-11-20T01:49:06.077Z,100874.50
2022-11-20T01:51:37.577Z,100884.66
2022-11-20T01:54:10.396Z,100882.72
2022-11-20T01:56:41.043Z,100881.25
2022-11-20T01:59:12.597Z,100869.50
2022-11-20T02:01:40.683Z,100882.69
2022-11-20T02:04:11.643Z,100876.19
2022-11-20T02:06:44.686Z,100876.41
2022-11-20T02:09:13.299Z,100872.31
2022-11-20T02:11:41.177Z,100877.09
2022-11-20T02:14:08.949Z,100859.53
2022-11-20T02:16:41.715Z,100864.19
2022-11-20T02:19:19.254Z,100858.78
2022-11-20T02:21:53.268Z,100860.88
2022-11-20T02:24:24.499Z,100857.81
2022-11-20T02:26:55.365Z,100853.19
2022-11-20T02:29:27.868Z,100844.16
2022-11-20T02:31:58.028Z,100856.97
2022-11-20T02:34:25.923Z,100852.88
2022-11-20T02:36:54.960Z,100857.06
2022-11-20T02:39:27.032Z,100850.91
2022-11-20T02:41:56.224Z,100847.94
2022-11-20T02:44:24.294Z,100840.56
2022-11-20T02:46:52.374Z,100827.84
2022-11-20T02:49:20.732Z,100849.63
2022-11-20T02:51:48.920Z,100821.66
2022-11-20T02:54:16.963Z,100828.78
2022-11-20T02:56:46.377Z,100833.25
2022-11-20T02:59:14.578Z,100825.59
2022-11-20T03:01:42.577Z,100822.50
2022-11-20T03:04:10.490Z,100830.81
2022-11-20T03:06:38.496Z,100820.19
2022-11-20T03:09:06.406Z,100819.72
2022-11-20T03:11:34.404Z,100828.28
2022-11-20T03:14:05.358Z,100821.66
2022-11-20T03:16:34.005Z,100811.84
2022-11-20T03:19:02.499Z,100813.75
2022-11-20T03:21:30.661Z,100789.78
2022-11-20T03:23:58.611Z,100822.59
2022-11-20T03:26:28.456Z,100806.50
2022-11-20T03:28:58.487Z,100811.34
2022-11-20T03:31:29.988Z,100803.97
2022-11-20T03:33:58.794Z,100814.56
2022-11-20T03:36:26.905Z,100809.09
2022-11-20T03:38:55.773Z,100809.16
2022-11-20T03:41:25.274Z,100807.66
2022-11-20T03:43:54.682Z,100815.50
2022-11-20T03:46:23.000Z,100817.16
2022-11-20T03:48:52.512Z,100805.84
2022-11-20T03:51:23.039Z,100810.84
2022-11-20T03:53:52.828Z,100802.81
2022-11-20T03:56:24.326Z,100794.53
2022-11-20T03:58:52.616Z,100787.09
2022-11-20T04:01:22.910Z,100783.66
2022-11-20T04:03:54.151Z,100765.53
2022-11-20T04:06:24.696Z,100773.84
2022-11-20T04:08:54.092Z,100786.19
2022-11-20T04:11:24.955Z,100783.69
2022-11-20T04:13:54.668Z,100781.09
2022-11-20T04:16:23.703Z,100775.00
2022-11-20T04:18:55.510Z,100773.84
2022-11-20T04:21:23.589Z,100771.00
2022-11-20T04:23:53.758Z,100773.47
2022-11-20T04:26:23.558Z,100765.25
2022-11-20T04:28:54.162Z,100768.91
2022-11-20T04:31:24.087Z,100771.75
2022-11-20T04:33:52.658Z,100767.84
2022-11-20T04:36:23.922Z,100772.59
2022-11-20T04:38:56.733Z,100767.47
2022-11-20T04:41:27.089Z,100764.47
2022-11-20T04:44:00.200Z,100756.44
2022-11-20T04:46:29.530Z,100765.81
2022-11-20T04:48:58.085Z,100767.91
2022-11-20T04:51:33.573Z,100757.38
2022-11-20T04:54:01.959Z,100762.16
2022-11-20T04:56:30.028Z,100743.28
2022-11-20T04:58:57.984Z,100758.22
2022-11-20T05:01:26.498Z,100743.38
2022-11-20T05:03:56.097Z,100752.16
2022-11-20T05:06:24.793Z,100761.06
2022-11-20T05:08:54.141Z,100764.66
2022-11-20T05:11:24.710Z,100759.66
2022-11-20T05:13:54.074Z,100758.19
2022-11-20T05:16:23.991Z,100742.72
2022-11-20T05:18:53.297Z,100757.72
2022-11-20T05:21:23.244Z,100754.63
2022-11-20T05:23:51.366Z,100746.47
2022-11-20T05:26:23.295Z,100739.31
2022-11-20T05:28:51.989Z,100740.75
2022-11-20T05:31:26.648Z,100741.34
2022-11-20T05:33:56.955Z,100720.22
2022-11-20T05:36:25.206Z,100727.94
2022-11-20T05:38:58.085Z,100722.34
2022-11-20T05:41:30.704Z,100698.59
2022-11-20T05:43:59.776Z,100708.03
2022-11-20T05:46:29.295Z,100713.22
2022-11-20T05:48:58.804Z,100712.69
2022-11-20T05:51:27.698Z,100700.31
2022-11-20T05:53:55.727Z,100724.88
2022-11-20T05:56:24.115Z,100724.16
2022-11-20T05:58:53.578Z,100699.41
2022-11-20T06:01:23.188Z,100704.88
2022-11-20T06:03:52.001Z,100711.94
2022-11-20T06:06:21.304Z,100704.69
2022-11-20T06:08:49.947Z,100665.59
2022-11-20T06:11:18.772Z,100698.25
2022-11-20T06:13:47.515Z,100677.78
2022-11-20T06:16:21.379Z,100696.75
2022-11-20T06:18:49.729Z,100692.84
2022-11-20T06:21:19.661Z,100691.59
2022-11-20T06:23:48.317Z,100681.50
2022-11-20T06:26:17.777Z,100681.25
2022-11-20T06:28:45.711Z,100684.38
2022-11-20T06:31:15.421Z,100693.47
2022-11-20T06:33:45.545Z,100687.75
2022-11-20T06:36:17.487Z,100677.13
2022-11-20T06:38:45.772Z,100660.84
2022-11-20T06:41:15.473Z,100679.19
2022-11-20T06:43:44.090Z,100663.41
2022-11-20T06:46:12.944Z,100649.13
2022-11-20T06:48:42.856Z,100653.19
2022-11-20T06:51:12.313Z,100650.31
2022-11-20T06:53:40.789Z,100637.50
2022-11-20T06:56:09.647Z,100648.63
2022-11-20T06:58:38.069Z,100656.34
2022-11-20T07:01:08.451Z,100644.66
2022-11-20T07:03:38.575Z,100657.09
2022-11-20T07:06:08.076Z,100646.88
2022-11-20T07:08:38.389Z,100643.25
2022-11-20T07:11:09.000Z,100632.94
2022-11-20T07:13:38.712Z,100642.06
2022-11-20T07:16:09.110Z,100640.41
2022-11-20T07:18:37.880Z,100643.19
2022-11-20T07:21:08.164Z,100639.94
2022-11-20T07:23:37.580Z,100648.75
2022-11-20T07:26:06.868Z,100648.19
2022-11-20T07:28:35.726Z,100652.75
2022-11-20T07:31:04.622Z,100659.34
2022-11-20T07:33:32.672Z,100650.97
2022-11-20T07:36:01.071Z,100662.38
2022-11-20T07:38:29.480Z,100654.78
2022-11-20T07:41:02.476Z,100644.44
2022-11-20T07:43:30.660Z,100657.72
2022-11-20T07:46:01.574Z,100629.34
2022-11-20T07:48:29.649Z,100650.53
2022-11-20T07:50:58.111Z,100659.44
2022-11-20T07:53:26.497Z,100654.22
2022-11-20T07:55:54.414Z,100652.75
2022-11-20T07:58:24.022Z,100639.63
2022-11-20T08:00:52.130Z,100649.22
2022-11-20T08:03:24.682Z,100647.78
2022-11-20T08:05:53.289Z,100641.97
2022-11-20T08:08:21.356Z,100643.47
2022-11-20T08:10:49.321Z,100642.59
2022-11-20T08:13:34.568Z,100648.66
2022-11-20T08:16:03.933Z,100626.75
2022-11-20T08:18:32.818Z,100631.63
2022-11-20T08:21:04.804Z,100619.88
2022-11-20T08:23:33.082Z,100634.34
2022-11-20T08:26:01.109Z,100595.50
2022-11-20T08:28:29.431Z,100615.03
2022-11-20T08:31:00.940Z,100619.53
2022-11-20T08:33:30.947Z,100609.03
2022-11-20T08:36:01.397Z,100592.22
2022-11-20T08:38:29.353Z,100573.13
2022-11-20T08:41:16.673Z,100591.25
2022-11-20T08:43:44.978Z,100600.28
2022-11-20T08:46:12.996Z,100575.13
2022-11-20T08:48:42.333Z,100581.47
2022-11-20T08:51:10.385Z,100576.03
2022-11-20T08:53:38.365Z,100571.03
2022-11-20T08:56:07.164Z,100586.41
2022-11-20T08:58:54.883Z,100580.03
2022-11-20T09:01:24.840Z,100589.28
2022-11-20T09:03:54.406Z,100583.28
2022-11-20T09:06:22.341Z,100568.41
2022-11-20T09:08:53.964Z,100582.25
2022-11-20T09:11:21.953Z,100588.09
2022-11-20T09:13:50.172Z,100574.47
2022-11-20T09:16:20.111Z,100572.84
2022-11-20T09:18:54.088Z,100579.28
2022-11-20T09:21:36.931Z,100581.28
2022-11-20T09:24:06.374Z,100574.94
2022-11-20T09:26:34.308Z,100560.72
2022-11-20T09:29:02.356Z,100564.50
2022-11-20T09:31:30.359Z,100538.72
2022-11-20T09:33:58.341Z,100564.66
2022-11-20T09:36:26.368Z,100560.78
2022-11-20T09:38:58.383Z,100536.63
2022-11-20T09:41:45.999Z,100553.66
2022-11-20T09:44:26.099Z,100542.16
2022-11-20T09:46:59.528Z,100544.13
2022-11-20T09:49:38.027Z,100504.47
2022-11-20T09:52:19.275Z,100537.97
2022-11-20T09:54:48.858Z,100535.63
2022-11-20T09:57:21.758Z,100533.69
2022-11-20T09:59:54.465Z,100544.56
2022-11-20T10:02:30.886Z,100545.19
2022-11-20T10:05:04.400Z,100530.00
2022-11-20T10:07:38.589Z,100518.81
2022-11-20T10:10:17.177Z,100521.94
2022-11-20T10:13:00.143Z,100522.91
2022-11-20T10:15:39.585Z,100497.69
2022-11-20T10:18:21.921Z,100513.53
2022-11-20T10:21:01.090Z,100521.28
2022-11-20T10:23:47.024Z,100514.38
2022-11-20T10:26:24.793Z,100507.19
2022-11-20T10:29:08.803Z,100502.22
2022-11-20T10:31:39.645Z,100507.44
2022-11-20T10:34:22.363Z,100507.38
2022-11-20T10:36:56.877Z,100497.22
2022-11-20T10:39:33.358Z,100496.66
2022-11-20T10:42:03.414Z,100505.41
2022-11-20T10:44:55.106Z,100487.41
2022-11-20T10:47:24.592Z,100491.25
2022-11-20T10:49:57.058Z,100493.72
2022-11-20T10:52:35.167Z,100497.09
2022-11-20T10:55:14.154Z,100497.97
2022-11-20T10:57:55.439Z,100489.06
2022-11-20T11:00:23.500Z,100485.66
2022-11-20T11:02:53.224Z,100465.06
2022-11-20T11:05:35.813Z,100467.69
2022-11-20T11:08:07.304Z,100454.22
2022-11-20T11:10:42.646Z,100441.66
2022-11-20T11:13:23.163Z,100424.91
2022-11-20T11:15:51.552Z,100431.50
2022-11-20T11:18:27.889Z,100430.66
2022-11-20T11:20:57.165Z,100431.69
2022-11-20T11:23:33.188Z,100417.06
2022-11-20T11:26:03.021Z,100432.28
2022-11-20T11:28:32.843Z,100424.69
2022-11-20T11:31:00.991Z,100420.03
2022-11-20T11:33:30.702Z,100426.03
2022-11-20T11:36:01.847Z,100411.75
2022-11-20T11:38:33.046Z,100415.94
2022-11-20T11:41:01.325Z,100409.56
2022-11-20T11:43:50.970Z,100407.91
2022-11-20T11:46:33.688Z,100405.31
2022-11-20T11:49:03.395Z,100394.66
2022-11-20T11:51:38.436Z,100396.81
2022-11-20T11:54:17.738Z,100392.19
2022-11-20T11:56:46.893Z,100384.13
2022-11-20T11:59:24.167Z,100382.31
2022-11-20T12:01:57.209Z,100383.91
2022-11-20T12:04:42.454Z,100379.03
2022-11-20T12:07:44.075Z,100383.28
2022-11-20T12:10:03.910Z,100369.09
2022-11-20T12:12:37.633Z,100364.47
2022-11-20T12:15:13.437Z,100358.56
2022-11-20T12:17:45.800Z,100338.94
2022-11-20T12:20:16.342Z,100347.59
2022-11-20T12:22:53.789Z,100349.56
2022-11-20T12:25:26.478Z,100348.13
2022-11-20T12:28:13.552Z,100325.44
2022-11-20T12:30:51.494Z,100332.59
2022-11-20T12:33:42.581Z,100309.78
2022-11-20T12:36:21.544Z,100335.56
2022-11-20T12:39:17.701Z,100327.34
2022-11-20T12:42:17.777Z,100329.53
2022-11-20T12:45:11.464Z,100340.47
2022-11-20T12:48:03.941Z,100344.22
2022-11-20T12:51:13.554Z,100328.31
2022-11-20T12:53:42.584Z,100320.22
2022-11-20T12:56:26.917Z,100328.78
2022-11-20T12:59:09.747Z,100320.84
2022-11-20T13:01:43.733Z,100320.81
2022-11-20T13:04:28.074Z,100327.59
2022-11-20T13:06:56.879Z,100328.03
2022-11-20T13:09:26.306Z,100323.94
2022-11-20T13:12:05.027Z,100324.34
2022-11-20T13:14:41.849Z,100321.97
2022-11-20T13:17:18.380Z,100313.53
2022-11-20T13:19:52.064Z,100320.06
2022-11-20T13:22:27.489Z,100315.91
2022-11-20T13:24:55.869Z,100318.31
2022-11-20T13:27:25.169Z,100324.25
2022-11-20T13:30:14.266Z,100307.50
2022-11-20T13:32:51.156Z,100319.03
2022-11-20T13:35:30.183Z,100301.13
2022-11-20T13:38:06.967Z,100295.88
2022-11-20T13:40:37.654Z,100294.28
2022-11-20T13:43:23.487Z,100273.34
2022-11-20T13:46:00.362Z,100290.97
2022-11-20T13:48:33.176Z,100280.59
2022-11-20T13:51:11.451Z,100281.63
2022-11-20T13:54:01.603Z,100274.31
2022-11-20T13:56:42.374Z,100275.75
2022-11-20T13:59:19.412Z,100280.19
2022-11-20T14:01:48.611Z,100267.88
2022-11-20T14:04:20.630Z,100280.09
2022-11-20T14:06:51.319Z,100270.78
2022-11-20T14:09:28.830Z,100271.19
2022-11-20T14:11:56.898Z,100268.31
2022-11-20T14:14:26.385Z,100247.25
2022-11-20T14:17:06.356Z,100247.84
2022-11-20T14:19:35.133Z,100252.38
2022-11-20T14:22:17.951Z,100225.44
2022-11-20T14:24:46.055Z,100239.09
2022-11-20T14:27:19.650Z,100225.38
2022-11-20T14:29:50.295Z,100230.88
2022-11-20T14:32:20.667Z,100214.72
2022-11-20T14:34:52.038Z,100212.16
2022-11-20T14:37:25.442Z,100216.88
2022-11-20T14:39:55.694Z,100208.66
2022-11-20T14:42:25.931Z,100216.72
2022-11-20T14:44:57.476Z,100209.41
2022-11-20T14:47:28.149Z,100221.53
2022-11-20T14:49:58.022Z,100199.22
2022-11-20T14:52:31.962Z,100214.09
2022-11-20T14:55:01.056Z,100206.94
2022-11-20T14:57:30.844Z,100212.03
2022-11-20T15:00:19.626Z,100217.41
2022-11-20T15:02:49.853Z,100209.09
2022-11-20T15:05:19.872Z,100201.53
2022-11-20T15:07:51.598Z,100191.72
2022-11-20T15:10:24.628Z,100178.50
2022-11-20T15:12:54.176Z,100175.78
2022-11-20T15:15:27.509Z,100181.97
2022-11-20T15:17:55.882Z,100178.28
2022-11-20T15:20:27.831Z,100181.59
2022-11-20T15:22:59.541Z,100165.59
2022-11-20T15:25:40.634Z,100175.44
2022-11-20T15:32:26.013Z,100153.13
2022-11-20T15:34:53.977Z,100167.38
2022-11-20T15:37:24.860Z,100163.19
2022-11-20T15:39:59.266Z,100157.22
2022-11-20T15:42:28.523Z,100168.69
2022-11-20T15:44:56.531Z,100168.69
2022-11-20T15:47:28.874Z,100166.00
2022-11-20T15:49:57.243Z,100159.53
2022-11-20T15:52:25.219Z,100155.66
2022-11-20T15:54:58.096Z,100140.16
2022-11-20T15:57:28.221Z,100159.47
2022-11-20T15:59:58.798Z,100154.56
2022-11-20T16:02:27.068Z,100147.91
2022-11-20T16:04:54.988Z,100160.72
2022-11-20T16:07:24.234Z,100146.06
2022-11-20T16:09:52.239Z,100145.06
2022-11-20T16:12:34.046Z,100143.28
2022-11-20T16:15:21.338Z,100147.72
2022-11-20T16:17:49.362Z,100142.25
2022-11-20T16:20:17.965Z,100138.63
2022-11-20T16:22:46.319Z,100127.78
2022-11-20T16:25:14.712Z,100125.22
2022-11-20T16:27:42.690Z,100128.00
2022-11-20T16:30:13.014Z,100122.97
2022-11-20T16:32:41.194Z,100124.44
2022-11-20T16:35:09.597Z,100107.28
2022-11-20T16:37:37.641Z,100105.34
2022-11-20T16:40:06.546Z,100104.13
2022-11-20T16:42:38.374Z,100105.72
2022-11-20T16:45:07.828Z,100101.84
2022-11-20T16:47:37.684Z,100094.47
2022-11-20T16:50:07.702Z,100065.31
2022-11-20T16:52:35.889Z,100106.25
2022-11-20T16:55:03.856Z,100103.13
2022-11-20T16:57:33.345Z,100102.06
2022-11-20T17:00:02.581Z,100110.88
2022-11-20T17:02:30.928Z,100106.94
2022-11-20T17:05:00.332Z,100098.78
2022-11-20T17:07:28.269Z,100110.69
2022-11-20T17:09:56.357Z,100091.91
2022-11-20T17:12:24.271Z,100082.56
2022-11-20T17:14:52.181Z,100084.19
2022-11-20T17:17:20.233Z,100091.78
2022-11-20T17:19:48.153Z,100091.97
2022-11-20T17:22:17.412Z,100090.97
2022-11-20T17:24:45.381Z,100066.63
2022-11-20T17:27:13.399Z,100091.09
2022-11-20T17:29:42.303Z,100083.44
2022-11-20T17:32:10.430Z,100074.78
2022-11-20T17:34:38.451Z,100072.06
2022-11-20T17:37:06.797Z,100075.34
2022-11-20T17:39:36.155Z,100065.84
2022-11-20T17:42:21.756Z,100060.81
2022-11-20T17:44:49.684Z,100065.84
2022-11-20T17:47:17.689Z,100049.59
2022-11-20T17:49:45.741Z,100061.00
2022-11-20T17:52:13.768Z,100063.44
2022-11-20T17:54:43.218Z,100052.66
2022-11-20T17:57:28.907Z,100056.84
2022-11-20T17:59:56.957Z,100060.47
2022-11-20T18:02:24.978Z,100047.53
2022-11-20T18:04:52.923Z,100043.34
2022-11-20T18:07:20.894Z,100047.00
2022-11-20T18:09:50.332Z,100037.84
2022-11-20T18:12:18.268Z,100032.97
2022-11-20T18:14:46.232Z,99994.91
2022-11-20T18:17:15.836Z,100009.06
2022-11-20T18:20:06.753Z,100027.81
2022-11-20T18:22:33.689Z,100034.50
2022-11-20T18:25:03.188Z,100017.44
2022-11-20T18:27:31.176Z,100019.66
2022-11-20T18:29:59.124Z,100007.97
2022-11-20T18:32:27.292Z,100017.06
2022-11-20T18:34:55.257Z,100026.41
2022-11-20T18:37:23.281Z,100016.03
2022-11-20T18:39:51.317Z,100023.69
2022-11-20T18:42:41.354Z,100029.28
2022-11-20T18:45:09.828Z,100020.09
2022-11-20T18:47:40.105Z,100026.13
2022-11-20T18:50:09.682Z,100011.63
2022-11-20T18:52:41.755Z,100015.53
2022-11-20T18:55:11.303Z,100012.78
2022-11-20T18:57:41.111Z,100004.94
2022-11-20T19:00:10.434Z,100011.97
2022-11-20T19:02:42.537Z,100003.63
2022-11-20T19:05:11.925Z,100000.66
2022-11-20T19:07:40.244Z,99994.44
2022-11-20T19:10:08.845Z,100011.38
2022-11-20T19:12:37.328Z,99987.13
2022-11-20T19:15:08.781Z,99982.53
2022-11-20T19:17:36.858Z,99983.56
2022-11-20T19:20:05.207Z,99968.34
2022-11-20T19:22:33.256Z,99971.25
2022-11-20T19:25:01.151Z,99966.69
2022-11-20T19:27:29.182Z,99974.97
2022-11-20T19:30:03.141Z,99974.94
2022-11-20T19:32:35.284Z,99962.88
2022-11-20T19:35:03.629Z,99964.53
2022-11-20T19:37:33.996Z,99942.19
2022-11-20T19:40:04.585Z,99951.16
2022-11-20T19:42:32.967Z,99963.22
2022-11-20T19:45:00.907Z,99949.91
2022-11-20T19:47:52.647Z,99945.44
2022-11-20T19:50:19.516Z,99941.38
2022-11-20T19:52:47.463Z,99958.75
2022-11-20T19:55:15.499Z,99958.25
2022-11-20T19:57:43.569Z,99945.56
2022-11-20T20:00:15.937Z,99953.03
2022-11-20T20:02:48.140Z,99960.66
2022-11-20T20:05:16.516Z,99963.34
2022-11-20T20:07:45.859Z,99934.59
2022-11-20T20:10:13.891Z,99966.72
2022-11-20T20:12:41.802Z,99962.06
2022-11-20T20:15:10.785Z,99955.63
2022-11-20T20:17:39.061Z,99965.34
2022-11-20T20:20:08.005Z,99949.66
2022-11-20T20:22:35.999Z,99956.34
2022-11-20T20:25:05.885Z,99951.19
2022-11-20T20:27:33.876Z,99944.25
2022-11-20T20:30:01.851Z,99946.75
2022-11-20T20:32:31.497Z,99933.38
2022-11-20T20:34:59.437Z,99945.78
2022-11-20T20:37:27.473Z,99950.78
2022-11-20T20:39:55.549Z,99940.69
2022-11-20T20:42:24.784Z,99943.06
2022-11-20T20:45:07.034Z,99948.88
2022-11-20T20:47:36.387Z,99899.63
2022-11-20T20:50:05.699Z,99946.06
2022-11-20T20:52:33.698Z,99930.75
2022-11-20T20:55:01.698Z,99934.19
2022-11-20T20:57:31.026Z,99932.31
2022-11-20T20:59:58.943Z,99938.34
2022-11-20T21:02:27.045Z,99922.88
2022-11-20T21:04:55.215Z,99922.50
2022-11-20T21:07:23.337Z,99927.25
2022-11-20T21:09:51.284Z,99896.47
2022-11-20T21:12:19.266Z,99900.31
2022-11-20T21:14:48.541Z,99899.97
2022-11-20T21:17:22.553Z,99896.00
2022-11-20T21:19:50.520Z,99884.78
2022-11-20T21:22:17.383Z,99887.72
2022-11-20T21:24:45.352Z,99891.34
2022-11-20T21:27:13.501Z,99885.28
2022-11-20T21:29:41.594Z,99878.09
2022-11-20T21:32:10.933Z,99886.53
2022-11-20T21:34:41.030Z,99880.81
2022-11-20T21:37:08.977Z,99853.66
2022-11-20T21:39:50.505Z,99865.81
2022-11-20T21:42:18.576Z,99857.91
2022-11-20T21:44:47.384Z,99865.63
2022-11-20T21:47:16.773Z,99863.19
2022-11-20T21:49:44.694Z,99864.19
2022-11-20T21:52:13.698Z,99848.50
2022-11-20T21:54:41.592Z,99830.13
2022-11-20T21:57:09.589Z,99838.78
2022-11-20T21:59:37.511Z,99843.53
2022-11-20T22:02:05.495Z,99834.16
2022-11-20T22:04:34.870Z,99827.16
2022-11-20T22:07:03.247Z,99842.03
2022-11-20T22:09:31.164Z,99847.66
2022-11-20T22:11:59.179Z,99824.88
2022-11-20T22:14:26.448Z,99822.19
2022-11-20T22:16:54.714Z,99809.09
2022-11-20T22:19:24.154Z,99830.47
2022-11-20T22:21:53.622Z,99830.13
2022-11-20T22:24:23.525Z,99830.84
2022-11-20T22:26:51.969Z,99824.16
2022-11-20T22:29:21.926Z,99819.63
2022-11-20T22:31:52.916Z,99801.75
2022-11-20T22:34:21.276Z,99786.50
2022-11-20T22:36:49.457Z,99781.41
2022-11-20T22:39:18.897Z,99814.34
2022-11-20T22:41:46.808Z,99787.59
2022-11-20T22:44:16.558Z,99795.66
2022-11-20T22:46:44.629Z,99803.03
2022-11-20T22:49:12.714Z,99790.91
2022-11-20T22:51:42.281Z,99803.38
2022-11-20T22:54:12.971Z,99781.53
2022-11-20T22:56:42.810Z,99780.59
2022-11-20T22:59:11.197Z,99787.03
2022-11-20T23:01:39.536Z,99772.00
2022-11-20T23:04:10.389Z,99777.38
2022-11-20T23:06:38.828Z,99783.19
2022-11-20T23:09:08.464Z,99790.69
2022-11-20T23:11:37.576Z,99799.03
2022-11-20T23:14:08.995Z,99794.97
2022-11-20T23:16:38.652Z,99788.09
2022-11-20T23:19:08.529Z,99788.47
2022-11-20T23:21:38.599Z,99791.94
2022-11-20T23:24:07.897Z,99787.13
2022-11-20T23:26:38.243Z,99799.22
2022-11-20T23:29:07.928Z,99777.41
2022-11-20T23:31:36.659Z,99791.75
2022-11-20T23:34:05.315Z,99800.34
2022-11-20T23:36:33.444Z,99789.53
2022-11-20T23:39:01.414Z,99773.59
2022-11-20T23:41:29.318Z,99784.97
2022-11-20T23:43:57.266Z,99775.75
2022-11-20T23:46:26.567Z,99773.34
2022-11-20T23:48:54.550Z,99766.66
2022-11-20T23:51:22.432Z,99768.84
2022-11-20T23:53:50.356Z,99777.06
2022-11-20T23:56:18.477Z,99769.25
2022-11-20T23:58:46.413Z,99757.50
